createdAt,value
2022-11-24T00:01:31.980Z,67.90
2022-11-24T00:04:06.839Z,68.00
2022-11-24T00:06:36.157Z,67.90
2022-11-24T00:09:05.304Z,68.00
2022-11-24T00:11:35.211Z,68.00
2022-11-24T00:14:03.930Z,67.90
2022-11-24T00:16:38.799Z,67.90
2022-11-24T00:19:14.595Z,68.00
2022-11-24T00:21:43.929Z,68.00
2022-11-24T00:24:11.684Z,68.00
2022-11-24T00:26:38.654Z,68.00
2022-11-24T00:29:09.926Z,68.10
2022-11-24T00:31:42.720Z,68.10
2022-11-24T00:34:16.483Z,68.10
2022-11-24T00:36:43.359Z,68.20
2022-11-24T00:39:19.756Z,68.10
2022-11-24T00:41:50.826Z,68.20
2022-11-24T00:44:17.671Z,68.10
2022-11-24T00:46:44.629Z,68.10
2022-11-24T00:49:11.855Z,68.00
2022-11-24T00:51:38.802Z,68.00
2022-11-24T00:54:13.628Z,68.00
2022-11-24T00:56:46.133Z,67.80
2022-11-24T00:59:15.513Z,67.70
2022-11-24T01:01:42.701Z,67.60
2022-11-24T01:04:12.743Z,67.60
2022-11-24T01:06:39.570Z,67.50
2022-11-24T01:09:11.380Z,67.40
2022-11-24T01:11:56.703Z,67.40
2022-11-24T01:14:27.735Z,67.40
2022-11-24T01:16:55.070Z,67.40
2022-11-24T01:19:22.515Z,67.40
2022-11-24T01:21:49.989Z,67.40
2022-11-24T01:24:19.459Z,67.30
2022-11-24T01:26:48.565Z,67.40
2022-11-24T01:29:17.680Z,67.30
2022-11-24T01:31:44.517Z,67.30
2022-11-24T01:34:14.458Z,67.40
2022-11-24T01:36:42.181Z,67.50
2022-11-24T01:39:11.548Z,67.50
2022-11-24T01:41:38.368Z,67.50
2022-11-24T01:44:28.718Z,67.50
2022-11-24T01:47:05.028Z,67.70
2022-11-24T01:49:48.132Z,67.40
2022-11-24T01:52:22.890Z,67.10
2022-11-24T01:54:59.417Z,67.10
2022-11-24T01:57:36.261Z,67.00
2022-11-24T02:00:11.271Z,67.00
2022-11-24T02:02:38.476Z,67.00
2022-11-24T02:05:31.149Z,66.90
2022-11-24T02:08:01.036Z,66.90
2022-11-24T02:10:27.903Z,67.00
2022-11-24T02:12:57.908Z,67.10
2022-11-24T02:15:25.413Z,67.20
2022-11-24T02:17:52.320Z,67.10
2022-11-24T02:20:19.298Z,67.10
2022-11-24T02:23:25.079Z,67.20
2022-11-24T02:26:10.229Z,67.30
2022-11-24T02:28:40.754Z,67.10
2022-11-24T02:31:07.889Z,67.10
2022-11-24T02:33:35.709Z,67.00
2022-11-24T02:36:02.614Z,67.00
2022-11-24T02:38:37.108Z,67.00
2022-11-24T02:41:08.992Z,66.90
2022-11-24T02:43:45.067Z,66.80
2022-11-24T02:46:14.304Z,66.70
2022-11-24T02:48:43.745Z,66.70
2022-11-24T02:51:13.076Z,66.70
2022-11-24T02:53:39.943Z,66.80
2022-11-24T02:56:09.426Z,66.80
2022-11-24T02:58:40.890Z,66.90
2022-11-24T03:01:07.800Z,66.90
2022-11-24T03:03:34.931Z,66.90
2022-11-24T03:06:01.745Z,66.70
2022-11-24T03:08:33.315Z,66.60
2022-11-24T03:11:01.694Z,66.50
2022-11-24T03:13:28.837Z,66.60
2022-11-24T03:16:00.396Z,66.60
2022-11-24T03:18:27.154Z,66.50
2022-11-24T03:21:01.055Z,66.60
2022-11-24T03:23:27.911Z,66.60
2022-11-24T03:25:54.982Z,67.50
2022-11-24T03:28:21.831Z,66.70
2022-11-24T03:30:53.032Z,66.90
2022-11-24T03:33:22.168Z,66.90
2022-11-24T03:35:51.476Z,67.00
2022-11-24T03:38:18.324Z,67.10
2022-11-24T03:40:45.184Z,67.10
2022-11-24T03:43:12.059Z,67.10
2022-11-24T03:45:46.400Z,67.10
2022-11-24T03:48:23.434Z,67.00
2022-11-24T03:51:00.911Z,67.20
2022-11-24T03:53:31.438Z,67.30
2022-11-24T03:56:00.855Z,67.30
2022-11-24T03:58:28.346Z,67.40
2022-11-24T04:00:56.119Z,67.60
2022-11-24T04:03:23.665Z,67.60
2022-11-24T04:05:50.757Z,68.50
2022-11-24T04:08:17.864Z,67.80
2022-11-24T04:10:44.973Z,67.70
2022-11-24T04:13:17.029Z,67.70
2022-11-24T04:15:49.904Z,67.80
2022-11-24T04:18:19.344Z,67.80
2022-11-24T04:20:51.725Z,67.80
2022-11-24T04:23:19.033Z,67.80
2022-11-24T04:25:50.447Z,67.80
2022-11-24T04:28:22.840Z,67.90
2022-11-24T04:30:49.657Z,67.80
2022-11-24T04:33:16.499Z,67.70
2022-11-24T04:35:45.614Z,67.60
2022-11-24T04:38:12.486Z,67.70
2022-11-24T04:40:39.334Z,67.70
2022-11-24T04:43:09.031Z,67.60
2022-11-24T04:45:40.689Z,67.50
2022-11-24T04:48:07.523Z,67.50
2022-11-24T04:50:37.168Z,67.50
2022-11-24T04:53:04.351Z,67.50
2022-11-24T04:55:35.815Z,67.50
2022-11-24T04:58:02.825Z,67.50
2022-11-24T05:00:32.691Z,67.50
2022-11-24T05:03:00.791Z,67.50
2022-11-24T05:05:27.661Z,67.50
2022-11-24T05:08:00.003Z,67.50
2022-11-24T05:10:36.471Z,67.50
2022-11-24T05:13:14.957Z,68.40
2022-11-24T05:15:45.082Z,67.50
2022-11-24T05:18:18.986Z,67.50
2022-11-24T05:20:49.550Z,67.40
2022-11-24T05:23:17.626Z,67.40
2022-11-24T05:25:47.633Z,68.10
2022-11-24T05:28:16.488Z,67.20
2022-11-24T05:30:43.411Z,67.20
2022-11-24T05:33:24.180Z,67.10
2022-11-24T05:35:51.407Z,67.20
2022-11-24T05:38:22.535Z,68.00
2022-11-24T05:40:52.036Z,67.10
2022-11-24T05:43:34.131Z,67.10
2022-11-24T05:46:04.245Z,67.00
2022-11-24T05:48:31.147Z,66.90
2022-11-24T05:51:03.172Z,66.80
2022-11-24T05:53:33.315Z,66.60
2022-11-24T05:56:04.539Z,66.60
2022-11-24T05:58:33.648Z,66.60
2022-11-24T06:01:08.529Z,66.60
2022-11-24T06:03:35.408Z,66.70
2022-11-24T06:06:03.177Z,66.90
2022-11-24T06:11:36.860Z,67.30
2022-11-24T06:14:08.231Z,67.40
2022-11-24T06:16:40.009Z,67.60
2022-11-24T06:19:14.507Z,67.50
2022-11-24T06:21:41.408Z,67.50
2022-11-24T06:24:10.755Z,67.40
2022-11-24T06:26:39.725Z,67.30
2022-11-24T06:29:06.923Z,67.40
2022-11-24T06:31:34.152Z,67.50
2022-11-24T06:34:01.103Z,67.60
2022-11-24T06:36:28.234Z,67.70
2022-11-24T06:38:55.123Z,68.00
2022-11-24T06:41:26.639Z,68.10
2022-11-24T06:43:53.495Z,68.30
2022-11-24T06:46:20.801Z,68.50
2022-11-24T06:48:54.889Z,68.50
2022-11-24T06:51:21.766Z,68.70
2022-11-24T06:53:54.259Z,68.70
2022-11-24T06:56:23.093Z,68.90
2022-11-24T06:58:54.789Z,68.90
2022-11-24T07:01:27.335Z,68.90
2022-11-24T07:03:55.760Z,69.00
2022-11-24T07:06:24.696Z,68.90
2022-11-24T07:08:52.559Z,68.90
2022-11-24T07:11:23.391Z,68.90
2022-11-24T07:13:59.920Z,69.00
2022-11-24T07:16:28.313Z,69.00
2022-11-24T07:18:56.218Z,69.00
2022-11-24T07:21:27.961Z,68.90
2022-11-24T07:23:56.986Z,69.00
2022-11-24T07:26:25.050Z,69.00
2022-11-24T07:28:52.181Z,68.90
2022-11-24T07:31:22.351Z,68.90
2022-11-24T07:33:54.923Z,68.90
2022-11-24T07:36:24.984Z,69.00
2022-11-24T07:38:52.183Z,68.90
2022-11-24T07:41:20.086Z,68.90
2022-11-24T07:43:50.560Z,69.00
2022-11-24T07:46:19.555Z,69.00
2022-11-24T07:48:47.215Z,69.00
2022-11-24T07:51:18.895Z,69.10
2022-11-24T07:53:46.387Z,69.10
2022-11-24T07:56:13.608Z,69.00
2022-11-24T07:58:40.606Z,69.00
2022-11-24T08:01:17.349Z,69.00
2022-11-24T08:03:45.380Z,69.10
2022-11-24T08:06:26.181Z,69.10
2022-11-24T08:08:59.104Z,69.10
2022-11-24T08:11:26.637Z,69.20
2022-11-24T08:13:53.868Z,69.20
2022-11-24T08:16:23.360Z,69.20
2022-11-24T08:18:53.045Z,69.20
2022-11-24T08:21:20.078Z,69.30
2022-11-24T08:23:47.307Z,69.30
2022-11-24T08:26:19.327Z,69.30
2022-11-24T08:28:47.985Z,69.30
2022-11-24T08:31:18.836Z,69.20
2022-11-24T08:33:48.990Z,69.20
2022-11-24T08:36:18.550Z,69.20
2022-11-24T08:39:06.154Z,69.30
2022-11-24T08:41:35.619Z,69.50
2022-11-24T08:44:02.501Z,69.30
2022-11-24T08:46:31.972Z,69.20
2022-11-24T08:49:01.235Z,69.20
2022-11-24T08:51:28.465Z,69.30
2022-11-24T08:54:01.315Z,69.30
2022-11-24T08:56:33.052Z,69.40
2022-11-24T08:59:03.253Z,69.30
2022-11-24T09:01:30.396Z,69.40
2022-11-24T09:03:57.834Z,69.40
2022-11-24T09:06:30.885Z,69.40
2022-11-24T09:08:58.963Z,69.40
2022-11-24T09:11:27.334Z,69.40
2022-11-24T09:13:55.078Z,69.30
2022-11-24T09:16:26.413Z,69.30
2022-11-24T09:19:16.089Z,69.20
2022-11-24T09:21:43.019Z,69.50
2022-11-24T09:24:10.834Z,69.30
2022-11-24T09:26:44.530Z,69.30
2022-11-24T09:29:16.417Z,69.40
2022-11-24T09:31:43.422Z,69.40
2022-11-24T09:34:15.524Z,69.40
2022-11-24T09:36:45.287Z,69.30
2022-11-24T09:39:12.355Z,69.20
2022-11-24T09:42:14.193Z,69.20
2022-11-24T09:45:22.794Z,69.30
2022-11-24T09:48:35.142Z,69.30
2022-11-24T09:51:04.758Z,69.20
2022-11-24T09:53:51.928Z,69.00
2022-11-24T09:56:28.883Z,69.00
2022-11-24T09:59:18.544Z,69.10
2022-11-24T10:01:54.448Z,69.20
2022-11-24T10:04:22.893Z,69.00
2022-11-24T10:07:21.351Z,69.00
2022-11-24T10:10:24.779Z,69.10
2022-11-24T10:13:30.128Z,69.20
2022-11-24T10:16:19.600Z,69.30
2022-11-24T10:19:22.025Z,69.40
2022-11-24T10:22:21.106Z,69.30
2022-11-24T10:25:12.945Z,69.10
2022-11-24T10:28:03.559Z,69.00
2022-11-24T10:30:33.071Z,69.10
2022-11-24T10:33:23.229Z,68.90
2022-11-24T10:36:03.576Z,68.70
2022-11-24T10:38:38.980Z,68.70
2022-11-24T10:41:48.048Z,68.70
2022-11-24T10:44:15.520Z,68.60
2022-11-24T10:46:42.578Z,68.60
2022-11-24T10:49:24.191Z,68.30
2022-11-24T10:52:16.060Z,68.10
2022-11-24T10:55:02.588Z,68.20
2022-11-24T10:57:30.959Z,68.30
2022-11-24T10:59:58.023Z,68.00
2022-11-24T11:02:40.564Z,67.90
2022-11-24T11:06:05.665Z,67.80
2022-11-24T11:08:33.023Z,67.40
2022-11-24T11:11:30.328Z,67.50
2022-11-24T11:14:03.948Z,67.40
2022-11-24T11:16:53.849Z,67.60
2022-11-24T11:20:01.561Z,67.60
2022-11-24T11:22:38.480Z,67.30
2022-11-24T11:25:11.591Z,67.40
2022-11-24T11:27:40.040Z,67.30
2022-11-24T11:36:15.994Z,66.90
2022-11-24T11:38:44.564Z,66.90
2022-11-24T11:41:21.919Z,66.90
2022-11-24T11:43:58.009Z,66.60
2022-11-24T11:46:29.057Z,66.60
2022-11-24T11:48:59.043Z,66.60
2022-11-24T11:51:42.100Z,66.70
2022-11-24T11:54:30.996Z,66.40
2022-11-24T11:57:42.212Z,66.30
2022-11-24T12:00:19.279Z,65.60
2022-11-24T12:03:16.537Z,65.90
2022-11-24T12:06:01.417Z,65.70
2022-11-24T12:09:11.589Z,65.60
2022-11-24T12:12:18.827Z,65.80
2022-11-24T12:15:37.158Z,65.40
2022-11-24T12:18:59.739Z,65.10
2022-11-24T12:21:55.025Z,65.40
2022-11-24T12:24:50.191Z,65.20
2022-11-24T12:27:47.355Z,65.10
2022-11-24T12:30:21.588Z,65.10
2022-11-24T12:33:00.381Z,65.20
2022-11-24T12:35:52.665Z,64.50
2022-11-24T12:38:44.948Z,64.50
2022-11-24T12:41:43.022Z,64.60
2022-11-24T12:44:55.213Z,64.50
2022-11-24T12:47:38.735Z,64.40
2022-11-24T12:53:06.075Z,64.60
2022-11-24T12:55:36.086Z,63.70
2022-11-24T12:58:28.726Z,64.00
2022-11-24T13:01:40.831Z,63.70
2022-11-24T13:04:35.912Z,63.20
2022-11-24T13:07:24.617Z,63.30
2022-11-24T13:10:53.624Z,63.80
2022-11-24T13:13:18.962Z,62.90
2022-11-24T13:16:34.801Z,63.40
2022-11-24T13:18:55.890Z,62.60
2022-11-24T13:21:59.757Z,62.80
2022-11-24T13:24:30.905Z,62.40
2022-11-24T13:27:16.383Z,62.80
2022-11-24T13:29:53.599Z,62.00
2022-11-24T13:32:23.034Z,62.30
2022-11-24T13:34:57.352Z,62.10
2022-11-24T13:37:34.508Z,62.20
2022-11-24T13:40:11.762Z,62.20
2022-11-24T13:43:02.529Z,62.10
2022-11-24T13:45:41.715Z,61.60
2022-11-24T13:48:21.165Z,61.30
2022-11-24T13:50:51.822Z,61.10
2022-11-24T13:53:37.516Z,61.20
2022-11-24T14:02:46.125Z,61.70
2022-11-24T14:05:17.743Z,61.50
2022-11-24T14:07:48.457Z,61.30
2022-11-24T14:10:38.201Z,61.30
2022-11-24T14:13:25.939Z,61.30
2022-11-24T14:16:18.789Z,61.10
2022-11-24T14:18:56.379Z,60.90
2022-11-24T14:21:28.533Z,61.10
2022-11-24T14:24:12.091Z,61.00
2022-11-24T14:26:40.992Z,60.70
2022-11-24T14:29:17.274Z,60.80
2022-11-24T14:31:58.422Z,60.50
2022-11-24T14:34:31.683Z,60.60
2022-11-24T14:37:02.029Z,60.70
2022-11-24T14:39:31.409Z,60.80
2022-11-24T14:42:05.084Z,60.80
2022-11-24T14:44:40.372Z,60.70
2022-11-24T14:47:31.650Z,60.70
2022-11-24T14:50:16.044Z,60.40
2022-11-24T14:53:00.748Z,60.80
2022-11-24T14:55:31.021Z,61.00
2022-11-24T14:57:59.476Z,61.00
2022-11-24T15:00:31.743Z,61.20
2022-11-24T15:03:01.805Z,61.20
2022-11-24T15:05:58.651Z,61.00
2022-11-24T15:08:37.489Z,60.70
2022-11-24T15:11:06.900Z,61.00
2022-11-24T15:13:38.226Z,61.00
2022-11-24T15:16:19.326Z,61.00
2022-11-24T15:19:01.535Z,60.80
2022-11-24T15:21:39.741Z,60.70
2022-11-24T15:24:20.335Z,60.80
2022-11-24T15:26:49.339Z,61.00
2022-11-24T15:29:16.245Z,61.20
2022-11-24T15:31:51.011Z,61.20
2022-11-24T15:34:24.230Z,61.20
2022-11-24T15:36:53.637Z,61.20
2022-11-24T15:39:20.481Z,61.20
2022-11-24T15:41:47.372Z,61.20
2022-11-24T15:44:17.267Z,61.10
2022-11-24T15:46:44.257Z,61.20
2022-11-24T15:49:11.164Z,61.20
2022-11-24T15:51:43.825Z,61.10
2022-11-24T15:54:17.779Z,61.10
2022-11-24T15:56:44.762Z,61.20
2022-11-24T15:59:20.305Z,61.30
2022-11-24T16:01:50.809Z,61.30
2022-11-24T16:04:22.658Z,61.40
2022-11-24T16:06:51.738Z,61.50
2022-11-24T16:09:50.694Z,61.80
2022-11-24T16:12:17.612Z,62.00
2022-11-24T16:14:44.493Z,62.10
2022-11-24T16:17:11.398Z,62.20
2022-11-24T16:19:41.822Z,62.20
2022-11-24T16:22:09.047Z,62.20
2022-11-24T16:24:36.469Z,62.30
2022-11-24T16:27:06.702Z,62.20
2022-11-24T16:29:38.588Z,62.30
2022-11-24T16:32:08.368Z,63.10
2022-11-24T16:34:35.425Z,63.10
2022-11-24T16:37:04.478Z,62.40
2022-11-24T16:39:33.408Z,62.70
2022-11-24T16:42:00.220Z,62.80
2022-11-24T16:44:27.114Z,62.90
2022-11-24T16:46:56.944Z,62.90
2022-11-24T16:49:29.362Z,62.90
2022-11-24T16:51:58.729Z,63.10
2022-11-24T16:54:25.818Z,63.10
2022-11-24T16:56:55.174Z,63.10
2022-11-24T16:59:24.543Z,63.00
2022-11-24T17:01:51.592Z,63.00
2022-11-24T17:04:18.591Z,63.00
2022-11-24T17:06:45.513Z,63.00
2022-11-24T17:09:12.445Z,63.10
2022-11-24T17:11:39.389Z,63.10
2022-11-24T17:14:10.971Z,63.30
2022-11-24T17:16:38.248Z,63.40
2022-11-24T17:19:05.731Z,63.60
2022-11-24T17:21:35.477Z,63.60
2022-11-24T17:24:05.872Z,63.80
2022-11-24T17:26:33.767Z,63.80
2022-11-24T17:29:00.884Z,63.70
2022-11-24T17:31:35.791Z,63.60
2022-11-24T17:34:06.325Z,63.60
2022-11-24T17:36:37.791Z,63.60
2022-11-24T17:39:07.587Z,64.50
2022-11-24T17:41:39.594Z,63.80
2022-11-24T17:44:08.586Z,63.80
2022-11-24T17:46:39.088Z,63.80
2022-11-24T17:49:13.005Z,63.70
2022-11-24T17:51:41.269Z,63.70
2022-11-24T17:54:39.116Z,63.60
2022-11-24T17:57:01.208Z,63.50
2022-11-24T17:59:28.097Z,63.60
2022-11-24T18:01:54.974Z,63.50
2022-11-24T18:04:26.860Z,63.40
2022-11-24T18:06:58.906Z,63.40
2022-11-24T18:09:28.055Z,63.40
2022-11-24T18:11:55.023Z,63.40
2022-11-24T18:14:21.920Z,63.50
2022-11-24T18:16:51.335Z,63.60
2022-11-24T18:19:22.756Z,64.50
2022-11-24T18:21:52.126Z,63.70
2022-11-24T18:24:23.910Z,63.70
2022-11-24T18:26:51.167Z,63.90
2022-11-24T18:29:18.124Z,63.90
2022-11-24T18:31:47.310Z,63.90
2022-11-24T18:34:14.221Z,63.90
2022-11-24T18:36:41.254Z,63.90
2022-11-24T18:39:09.956Z,64.00
2022-11-24T18:41:36.894Z,64.00
2022-11-24T18:44:07.911Z,64.00
2022-11-24T18:46:35.305Z,64.10
2022-11-24T18:49:02.370Z,64.10
2022-11-24T18:51:30.064Z,64.10
2022-11-24T18:53:58.230Z,64.10
2022-11-24T18:56:26.470Z,64.00
2022-11-24T18:58:55.412Z,64.00
2022-11-24T19:01:28.373Z,64.00
2022-11-24T19:03:58.509Z,64.00
2022-11-24T19:06:32.657Z,64.00
2022-11-24T19:09:08.369Z,64.00
2022-11-24T19:11:42.086Z,64.00
2022-11-24T19:14:17.471Z,64.10
2022-11-24T19:16:49.750Z,64.10
2022-11-24T19:19:17.365Z,64.00
2022-11-24T19:21:44.405Z,64.00
2022-11-24T19:24:14.331Z,64.10
2022-11-24T19:26:43.750Z,64.00
2022-11-24T19:29:10.818Z,64.10
2022-11-24T19:31:41.214Z,64.20
2022-11-24T19:34:11.491Z,64.20
2022-11-24T19:36:40.500Z,64.20
2022-11-24T19:39:12.219Z,64.20
2022-11-24T19:41:39.106Z,64.10
2022-11-24T19:44:06.055Z,64.00
2022-11-24T19:46:33.514Z,63.90
2022-11-24T19:49:01.955Z,63.90
2022-11-24T19:51:38.528Z,63.90
2022-11-24T19:54:13.248Z,63.80
2022-11-24T19:56:41.403Z,63.90
2022-11-24T19:59:13.190Z,63.80
2022-11-24T20:01:43.252Z,63.90
2022-11-24T20:04:13.692Z,64.00
2022-11-24T20:06:45.581Z,64.00
2022-11-24T20:09:15.936Z,64.10
2022-11-24T20:11:43.015Z,64.10
2022-11-24T20:14:19.032Z,64.20
2022-11-24T20:16:50.953Z,64.10
2022-11-24T20:19:18.720Z,64.90
2022-11-24T20:21:47.900Z,64.20
2022-11-24T20:24:17.468Z,64.20
2022-11-24T20:26:49.197Z,64.20
2022-11-24T20:29:19.263Z,64.30
2022-11-24T20:31:50.062Z,64.30
2022-11-24T20:34:20.798Z,64.30
2022-11-24T20:36:48.620Z,64.30
2022-11-24T20:39:23.902Z,64.40
2022-11-24T20:41:54.779Z,64.40
2022-11-24T20:44:22.713Z,64.30
2022-11-24T20:46:50.129Z,64.30
2022-11-24T20:49:20.129Z,64.30
2022-11-24T20:51:47.810Z,64.30
2022-11-24T20:54:17.829Z,64.40
2022-11-24T20:56:46.530Z,64.40
2022-11-24T20:59:21.584Z,65.30
2022-11-24T21:01:52.535Z,64.60
2022-11-24T21:04:29.019Z,64.70
2022-11-24T21:06:56.494Z,64.80
2022-11-24T21:09:24.743Z,64.80
2022-11-24T21:11:51.631Z,64.80
2022-11-24T21:14:21.063Z,64.80
2022-11-24T21:16:55.011Z,64.90
2022-11-24T21:19:26.851Z,64.90
2022-11-24T21:21:54.098Z,64.90
2022-11-24T21:24:23.486Z,65.00
2022-11-24T21:26:53.227Z,65.00
2022-11-24T21:29:23.354Z,65.00
2022-11-24T21:31:50.688Z,65.10
2022-11-24T21:34:20.839Z,65.10
2022-11-24T21:36:50.375Z,65.10
2022-11-24T21:39:17.647Z,65.10
2022-11-24T21:41:44.696Z,65.10
2022-11-24T21:44:13.469Z,65.10
2022-11-24T21:46:46.119Z,65.20
2022-11-24T21:49:18.856Z,65.20
2022-11-24T21:51:48.097Z,65.30
2022-11-24T21:54:14.971Z,65.30
2022-11-24T21:56:41.892Z,65.40
2022-11-24T21:59:15.868Z,65.40
2022-11-24T22:01:42.884Z,65.40
2022-11-24T22:04:12.345Z,65.50
2022-11-24T22:06:41.680Z,65.60
2022-11-24T22:09:16.404Z,65.70
2022-11-24T22:11:52.648Z,65.70
2022-11-24T22:14:19.573Z,65.70
2022-11-24T22:16:51.197Z,65.80
2022-11-24T22:19:22.746Z,65.80
2022-11-24T22:21:50.748Z,66.00
2022-11-24T22:24:19.035Z,65.90
2022-11-24T22:26:49.439Z,65.90
2022-11-24T22:29:16.343Z,66.00
2022-11-24T22:31:46.317Z,66.00
2022-11-24T22:34:13.202Z,66.00
2022-11-24T22:36:40.066Z,66.00
2022-11-24T22:39:11.851Z,66.00
2022-11-24T22:41:38.759Z,66.00
2022-11-24T22:44:06.028Z,66.00
2022-11-24T22:46:33.172Z,66.00
2022-11-24T22:49:01.744Z,66.20
2022-11-24T22:51:34.271Z,66.20
2022-11-24T22:54:03.840Z,66.30
2022-11-24T22:56:32.499Z,66.40
2022-11-24T22:59:01.171Z,66.40
2022-11-24T23:01:33.533Z,66.50
2022-11-24T23:04:00.821Z,66.50
2022-11-24T23:06:30.420Z,66.50
2022-11-24T23:09:02.147Z,66.50
2022-11-24T23:11:37.487Z,66.50
2022-11-24T23:14:16.807Z,66.60
2022-11-24T23:16:46.391Z,66.40
2022-11-24T23:19:13.290Z,66.50
2022-11-24T23:21:42.648Z,66.60
2022-11-24T23:24:10.941Z,66.50
2022-11-24T23:26:40.497Z,66.50
2022-11-24T23:29:10.384Z,66.60
2022-11-24T23:31:40.412Z,66.60
2022-11-24T23:34:12.327Z,66.60
2022-11-24T23:36:41.903Z,66.60
2022-11-24T23:39:13.356Z,66.50
2022-11-24T23:41:40.584Z,66.70
2022-11-24T23:44:08.029Z,66.70
2022-11-24T23:46:34.917Z,66.70
2022-11-24T23:49:01.859Z,66.60
2022-11-24T23:51:35.962Z,66.60
2022-11-24T23:54:10.394Z,66.60
2022-11-24T23:56:37.530Z,66.70
2022-11-24T23:59:05.130Z,66.70
